Home   Weather   USA   Aurora   Past weeks
Flag for USA

Past Weather in Aurora, Illinois, USA — Yesterday and Last 2 Weeks

Currently: 57 °F. Overcast. (Weather station: Dupage Airport, USA). See more current weather

Past Weather in Aurora — Graph

°F

Aurora Temperature Yesterday

Maximum temperature yesterday: 56 °F (at 12:52 pm)
Minimum temperature yesterday: 41 °F (at 4:52 am)
Average temperature yesterday: 50 °F

High & Low Weather Summary for the Past Weeks

 TemperatureHumidityPressure
High79 °F (Apr 6, 1:52 pm)100% (Apr 10, 5:19 am)30.58 "Hg (Apr 10, 5:19 am)
Low21 °F (Apr 2, 5:52 am)23% (Apr 2, 2:52 pm)29.28 "Hg (Apr 11, 3:43 am)
Average51 °F63%29.89 "Hg
* Reported Mar 27 3:52 pm — Apr 11 3:52 pm, Aurora. Weather by CustomWeather, © 2021

Note: Actual official high and low records may vary slightly from our data, if they occured in-between our weather recording intervals... More about our weather records

Aurora Weather History for the Previous 24 Hours

Scroll right to see more
 ConditionsComfort  
Time TempWeatherWind HumidityBarometerVisibility
3:52 pm
Sun, Apr 11
56 °FOvercast.7 mph60%29.42 "Hg10 mi
2:52 pm55 °FOvercast.8 mph62%29.40 "Hg10 mi
1:52 pm54 °FMostly cloudy.6 mph64%29.39 "Hg10 mi
12:52 pm54 °FMore clouds than sun.3 mph64%29.37 "Hg10 mi
12:33 pm52 °FOvercast.No wind69%29.37 "Hg10 mi
11:52 am52 °FOvercast.5 mph69%29.36 "Hg10 mi
10:52 am50 °FOvercast.5 mph71%29.35 "Hg10 mi
9:52 am49 °FOvercast.5 mph80%29.33 "Hg10 mi
8:52 am48 °FMore clouds than sun.6 mph83%29.32 "Hg10 mi
7:52 am47 °FLow clouds.No wind90%29.31 "Hg9 mi
7:38 am46 °FOvercast.No wind89%29.31 "Hg8 mi
6:59 am45 °FFog.3 mph93%29.31 "Hg5 mi
6:03 am45 °FLow clouds.No wind90%29.29 "Hg10 mi
5:52 am44 °FOvercast.No wind93%29.29 "Hg10 mi
5:07 am44 °FOvercast.No wind89%29.29 "Hg10 mi
4:52 am45 °FPassing clouds.No wind90%29.29 "Hg10 mi
3:52 am43 °FPassing clouds.3 mph93%29.29 "Hg10 mi
3:43 am43 °FPassing clouds.5 mph89%29.28 "Hg10 mi
2:52 am44 °FClear.8 mph89%29.29 "Hg10 mi
1:52 am45 °FClear.8 mph86%29.29 "Hg10 mi
12:52 am46 °FClear.5 mph86%29.31 "Hg10 mi
11:52 pm
Sat, Apr 10
50 °FPassing clouds.12 mph83%29.32 "Hg10 mi
10:52 pm52 °FMostly cloudy.7 mph93%29.32 "Hg10 mi
10:03 pm53 °FMostly cloudy.8 mph89%29.33 "Hg10 mi
9:52 pm53 °FOvercast.7 mph89%29.34 "Hg10 mi
8:52 pm51 °FOvercast.3 mph92%29.34 "Hg10 mi
7:52 pm52 °FLight rain. Overcast.5 mph89%29.36 "Hg10 mi
6:52 pm52 °FLight rain. Fog.5 mph93%29.35 "Hg6 mi
6:35 pm52 °FHeavy rain. Fog.7 mph93%29.36 "Hg1 mi
5:52 pm52 °FLight rain. Fog.16 mph93%29.34 "Hg3 mi
5:30 pm52 °FLight rain. Fog.12 mph93%29.35 "Hg4 mi
5:02 pm52 °FFog.9 mph93%29.36 "Hg5 mi
Weather by CustomWeather, © 2021

See weather overview